createdAt,value
2018-11-11T00:01:09.884Z,97.39
2018-11-11T00:03:39.654Z,97.18
2018-11-11T00:06:09.820Z,96.94
2018-11-11T00:08:39.708Z,97.29
2018-11-11T00:11:09.360Z,97.45
2018-11-11T00:13:39.120Z,97.31
2018-11-11T00:16:08.871Z,98.26
2018-11-11T00:18:38.453Z,98.29
2018-11-11T00:21:07.999Z,98.31
2018-11-11T00:23:37.931Z,98.20
2018-11-11T00:26:07.806Z,98.27
2018-11-11T00:28:37.492Z,98.67
2018-11-11T00:31:07.164Z,98.35
2018-11-11T00:33:36.830Z,97.85
2018-11-11T00:36:06.661Z,97.98
2018-11-11T00:38:36.300Z,97.72
2018-11-11T00:41:06.354Z,97.65
2018-11-11T00:43:36.144Z,97.54
2018-11-11T00:46:06.038Z,98.37
2018-11-11T00:48:35.663Z,98.52
2018-11-11T00:51:05.516Z,98.39
2018-11-11T00:53:35.122Z,97.83
2018-11-11T00:56:04.873Z,98.01
2018-11-11T00:58:34.504Z,97.94
2018-11-11T01:01:04.175Z,98.77
2018-11-11T01:03:33.853Z,99.29
2018-11-11T01:06:03.591Z,99.43
2018-11-11T01:08:33.397Z,98.82
2018-11-11T01:11:03.045Z,98.59
2018-11-11T01:13:32.685Z,98.17
2018-11-11T01:16:02.443Z,98.37
2018-11-11T01:18:32.128Z,98.79
2018-11-11T01:21:01.892Z,99.35
2018-11-11T01:23:31.724Z,99.52
2018-11-11T01:26:01.386Z,100.00
2018-11-11T01:28:31.206Z,100.00
2018-11-11T01:31:00.803Z,100.00
2018-11-11T01:33:30.330Z,100.00
2018-11-11T01:36:00.386Z,100.00
2018-11-11T01:38:30.196Z,100.00
2018-11-11T01:40:59.992Z,100.00
2018-11-11T01:43:30.369Z,100.00
2018-11-11T01:46:00.257Z,100.00
2018-11-11T01:48:29.917Z,100.00
2018-11-11T01:50:59.627Z,100.00
2018-11-11T01:53:29.338Z,100.00
2018-11-11T01:55:59.143Z,100.00
2018-11-11T01:58:28.985Z,100.00
2018-11-11T02:00:58.814Z,100.00
2018-11-11T02:03:28.758Z,100.00
2018-11-11T02:05:58.626Z,100.00
2018-11-11T02:08:28.440Z,100.00
2018-11-11T02:10:58.219Z,100.00
2018-11-11T02:13:27.952Z,100.00
2018-11-11T02:15:57.745Z,100.00
2018-11-11T02:18:27.468Z,100.00
2018-11-11T02:20:57.132Z,100.00
2018-11-11T02:23:27.819Z,100.00
2018-11-11T02:25:57.382Z,100.00
2018-11-11T02:28:26.985Z,100.00
2018-11-11T02:30:56.729Z,99.79
2018-11-11T02:33:29.623Z,99.68
2018-11-11T02:35:59.307Z,99.31
2018-11-11T02:38:28.981Z,99.92
2018-11-11T02:40:58.825Z,99.90
2018-11-11T02:43:28.653Z,100.00
2018-11-11T02:45:59.445Z,100.00
2018-11-11T02:48:28.979Z,100.00
2018-11-11T02:50:58.607Z,100.00
2018-11-11T02:53:28.397Z,100.00
2018-11-11T02:55:58.177Z,100.00
2018-11-11T02:58:27.889Z,100.00
2018-11-11T03:00:58.295Z,100.00
2018-11-11T03:03:27.957Z,100.00
2018-11-11T03:05:58.827Z,100.00
2018-11-11T03:08:28.602Z,100.00
2018-11-11T03:10:59.241Z,100.00
2018-11-11T03:13:28.856Z,100.00
2018-11-11T03:15:58.591Z,100.00
2018-11-11T03:18:28.177Z,100.00
2018-11-11T03:20:57.990Z,100.00
2018-11-11T03:23:27.730Z,100.00
2018-11-11T03:25:57.559Z,100.00
2018-11-11T03:28:27.410Z,100.00
2018-11-11T03:30:57.138Z,100.00
2018-11-11T03:33:27.105Z,100.00
2018-11-11T03:35:57.161Z,100.00
2018-11-11T03:38:27.589Z,100.00
2018-11-11T03:40:57.522Z,100.00
2018-11-11T03:43:27.270Z,100.00
2018-11-11T03:45:57.229Z,100.00
2018-11-11T03:48:26.882Z,100.00
2018-11-11T03:50:56.653Z,100.00
2018-11-11T03:53:26.294Z,100.00
2018-11-11T03:55:55.954Z,100.00
2018-11-11T03:58:25.611Z,100.00
2018-11-11T04:00:55.284Z,100.00
2018-11-11T04:03:25.401Z,100.00
2018-11-11T04:05:55.092Z,100.00
2018-11-11T04:08:24.864Z,100.00
2018-11-11T04:10:55.420Z,100.00
2018-11-11T04:13:25.177Z,100.00
2018-11-11T04:15:54.848Z,100.00
2018-11-11T04:18:24.533Z,100.00
2018-11-11T04:20:54.280Z,100.00
2018-11-11T04:23:23.888Z,100.00
2018-11-11T04:25:53.589Z,100.00
2018-11-11T04:28:23.329Z,100.00
2018-11-11T04:30:53.126Z,100.00
2018-11-11T04:33:22.688Z,99.70
2018-11-11T04:35:53.467Z,100.00
2018-11-11T04:38:23.804Z,100.00
2018-11-11T04:40:53.555Z,100.00
2018-11-11T04:43:23.401Z,100.00
2018-11-11T04:45:53.021Z,100.00
2018-11-11T04:48:22.695Z,100.00
2018-11-11T04:50:52.300Z,100.00
2018-11-11T04:53:22.042Z,100.00
2018-11-11T04:55:51.808Z,100.00
2018-11-11T04:58:21.420Z,100.00
2018-11-11T05:00:51.234Z,100.00
2018-11-11T05:03:21.073Z,100.00
2018-11-11T05:05:50.593Z,100.00
2018-11-11T05:08:20.335Z,100.00
2018-11-11T05:10:50.164Z,100.00
2018-11-11T05:13:19.881Z,100.00
2018-11-11T05:15:49.722Z,100.00
2018-11-11T05:18:19.503Z,100.00
2018-11-11T05:20:49.201Z,100.00
2018-11-11T05:23:19.043Z,100.00
2018-11-11T05:25:48.863Z,100.00
2018-11-11T05:28:18.528Z,100.00
2018-11-11T05:30:48.143Z,100.00
2018-11-11T05:33:17.714Z,100.00
2018-11-11T05:35:47.452Z,100.00
2018-11-11T05:38:17.174Z,100.00
2018-11-11T05:40:46.781Z,100.00
2018-11-11T05:43:16.490Z,100.00
2018-11-11T05:45:46.334Z,100.00
2018-11-11T05:48:16.032Z,99.74
2018-11-11T05:50:46.864Z,98.76
2018-11-11T05:53:16.518Z,98.02
2018-11-11T05:55:46.197Z,97.65
2018-11-11T05:58:16.007Z,97.37
2018-11-11T06:00:45.765Z,96.77
2018-11-11T06:03:15.420Z,95.41
2018-11-11T06:05:45.225Z,93.31
2018-11-11T06:08:14.921Z,91.08
2018-11-11T06:10:44.514Z,89.40
2018-11-11T06:13:15.074Z,87.09
2018-11-11T06:15:44.904Z,85.41
2018-11-11T06:18:14.508Z,85.67
2018-11-11T06:20:44.194Z,84.72
2018-11-11T06:23:14.003Z,82.98
2018-11-11T06:25:43.712Z,79.72
2018-11-11T06:28:13.450Z,76.78
2018-11-11T06:30:43.096Z,76.41
2018-11-11T06:33:12.776Z,73.08
2018-11-11T06:35:42.409Z,71.27
2018-11-11T06:38:12.535Z,70.47
2018-11-11T06:40:42.200Z,70.98
2018-11-11T06:43:11.835Z,69.75
2018-11-11T06:45:41.605Z,70.74
2018-11-11T06:48:11.253Z,68.68
2018-11-11T06:50:40.911Z,66.27
2018-11-11T06:53:10.575Z,64.80
2018-11-11T06:55:40.996Z,65.15
2018-11-11T06:58:10.694Z,63.57
2018-11-11T07:00:40.564Z,62.15
2018-11-11T07:03:20.881Z,61.11
2018-11-11T07:05:50.408Z,60.44
2018-11-11T07:08:20.701Z,58.81
2018-11-11T07:10:50.327Z,58.67
2018-11-11T07:13:19.952Z,58.22
2018-11-11T07:15:49.734Z,58.56
2018-11-11T07:18:19.614Z,57.71
2018-11-11T07:20:49.230Z,57.00
2018-11-11T07:23:19.032Z,56.75
2018-11-11T07:25:48.677Z,56.90
2018-11-11T07:28:18.538Z,54.57
2018-11-11T07:30:48.193Z,54.51
2018-11-11T07:33:18.425Z,53.43
2018-11-11T07:35:48.169Z,54.51
2018-11-11T07:38:17.843Z,50.84
2018-11-11T07:40:47.588Z,49.31
2018-11-11T07:43:17.371Z,47.80
2018-11-11T07:45:47.108Z,50.56
2018-11-11T07:48:16.871Z,49.12
2018-11-11T07:50:46.509Z,52.64
2018-11-11T07:53:16.152Z,51.40
2018-11-11T07:55:45.899Z,51.29
2018-11-11T07:58:15.698Z,51.32
2018-11-11T08:00:45.627Z,49.73
2018-11-11T08:03:15.311Z,49.97
2018-11-11T08:05:45.947Z,50.97
2018-11-11T08:08:15.590Z,51.22
2018-11-11T08:10:56.215Z,50.46
2018-11-11T08:13:25.875Z,51.02
2018-11-11T08:15:55.645Z,52.52
2018-11-11T08:18:25.301Z,49.58
2018-11-11T08:20:55.087Z,50.87
2018-11-11T08:23:24.824Z,50.89
2018-11-11T08:25:55.177Z,47.14
2018-11-11T08:28:25.051Z,45.55
2018-11-11T08:30:54.666Z,42.71
2018-11-11T08:33:24.345Z,44.93
2018-11-11T08:35:54.085Z,44.90
2018-11-11T08:38:23.716Z,44.46
2018-11-11T08:40:53.560Z,44.23
2018-11-11T08:43:23.088Z,43.09
2018-11-11T08:45:52.829Z,41.24
2018-11-11T08:48:22.744Z,40.40
2018-11-11T08:50:52.540Z,41.01
2018-11-11T08:53:22.342Z,37.78
2018-11-11T08:55:52.165Z,41.37
2018-11-11T08:58:21.977Z,43.14
2018-11-11T09:00:51.658Z,40.23
2018-11-11T09:03:21.495Z,41.84
2018-11-11T09:05:51.061Z,42.16
2018-11-11T09:08:21.408Z,41.98
2018-11-11T09:10:51.356Z,36.87
2018-11-11T09:13:21.065Z,40.35
2018-11-11T09:15:50.824Z,38.63
2018-11-11T09:18:20.488Z,42.19
2018-11-11T09:20:50.340Z,41.40
2018-11-11T09:23:20.086Z,38.30
2018-11-11T09:25:49.709Z,38.09
2018-11-11T09:28:19.305Z,36.29
2018-11-11T09:30:48.928Z,36.45
2018-11-11T09:33:18.686Z,36.73
2018-11-11T09:35:48.864Z,38.86
2018-11-11T09:38:18.848Z,36.99
2018-11-11T09:40:48.704Z,36.28
2018-11-11T09:43:18.745Z,38.00
2018-11-11T09:45:48.290Z,39.31
2018-11-11T09:48:18.841Z,40.20
2018-11-11T09:50:48.545Z,37.99
2018-11-11T09:53:18.299Z,37.57
2018-11-11T09:55:48.072Z,36.92
2018-11-11T09:58:17.803Z,35.52
2018-11-11T10:00:47.961Z,37.46
2018-11-11T10:03:22.018Z,37.15
2018-11-11T10:05:57.991Z,37.50
2018-11-11T10:08:42.972Z,37.37
2018-11-11T10:11:17.188Z,38.04
2018-11-11T10:13:51.811Z,37.87
2018-11-11T10:16:28.276Z,37.87
2018-11-11T10:19:02.951Z,37.50
2018-11-11T10:21:41.828Z,37.90
2018-11-11T10:25:15.334Z,37.86
2018-11-11T10:27:50.574Z,35.18
2018-11-11T10:30:26.970Z,36.04
2018-11-11T10:33:11.256Z,37.04
2018-11-11T10:35:47.785Z,37.56
2018-11-11T10:38:21.256Z,37.17
2018-11-11T10:40:57.245Z,36.12
2018-11-11T10:43:32.080Z,35.46
2018-11-11T10:46:05.170Z,36.23
2018-11-11T10:48:42.023Z,37.20
2018-11-11T10:51:11.721Z,35.42
2018-11-11T10:53:41.505Z,37.09
2018-11-11T10:56:12.085Z,37.16
2018-11-11T10:58:41.836Z,37.39
2018-11-11T11:01:16.796Z,37.07
2018-11-11T11:03:46.557Z,37.44
2018-11-11T11:06:16.731Z,37.24
2018-11-11T11:08:51.657Z,34.58
2018-11-11T11:11:21.487Z,35.55
2018-11-11T11:13:51.473Z,34.51
2018-11-11T11:16:21.705Z,34.02
2018-11-11T11:18:51.369Z,36.40
2018-11-11T11:21:21.395Z,36.73
2018-11-11T11:23:51.148Z,36.53
2018-11-11T11:26:21.079Z,37.45
2018-11-11T11:28:50.958Z,35.48
2018-11-11T11:31:20.680Z,36.44
2018-11-11T11:33:50.488Z,36.20
2018-11-11T11:36:20.235Z,35.88
2018-11-11T11:38:50.180Z,36.24
2018-11-11T11:41:20.179Z,37.40
2018-11-11T11:43:49.991Z,38.16
2018-11-11T11:46:20.555Z,38.26
2018-11-11T11:48:50.297Z,36.38
2018-11-11T11:51:20.009Z,37.24
2018-11-11T11:53:49.833Z,36.20
2018-11-11T11:56:19.360Z,35.28
2018-11-11T11:58:49.118Z,33.93
2018-11-11T12:01:18.926Z,36.06
2018-11-11T12:03:48.868Z,36.94
2018-11-11T12:06:18.792Z,36.73
2018-11-11T12:08:48.453Z,37.11
2018-11-11T12:11:18.107Z,37.63
2018-11-11T12:13:48.205Z,38.25
2018-11-11T12:16:17.871Z,37.10
2018-11-11T12:18:47.517Z,37.47
2018-11-11T12:21:17.206Z,38.67
2018-11-11T12:23:46.925Z,39.40
2018-11-11T12:26:16.583Z,39.48
2018-11-11T12:28:46.251Z,40.74
2018-11-11T12:31:16.200Z,41.94
2018-11-11T12:33:46.029Z,43.44
2018-11-11T12:36:15.789Z,45.68
2018-11-11T12:38:45.667Z,45.72
2018-11-11T12:41:15.320Z,45.63
2018-11-11T12:43:45.068Z,46.91
2018-11-11T12:46:15.046Z,46.86
2018-11-11T12:48:45.869Z,47.34
2018-11-11T12:51:15.672Z,45.62
2018-11-11T12:53:45.640Z,46.25
2018-11-11T12:56:15.402Z,46.45
2018-11-11T12:58:45.232Z,46.90
2018-11-11T13:01:15.164Z,47.33
2018-11-11T13:03:44.724Z,47.66
2018-11-11T13:06:14.410Z,47.46
2018-11-11T13:08:44.046Z,49.03
2018-11-11T13:11:13.914Z,47.63
2018-11-11T13:13:43.661Z,47.90
2018-11-11T13:16:13.543Z,47.26
2018-11-11T13:18:43.386Z,46.87
2018-11-11T13:21:13.145Z,47.18
2018-11-11T13:23:42.841Z,47.58
2018-11-11T13:26:12.608Z,47.16
2018-11-11T13:28:42.363Z,46.99
2018-11-11T13:31:12.077Z,47.18
2018-11-11T13:33:41.851Z,48.17
2018-11-11T13:36:11.808Z,47.48
2018-11-11T13:38:42.617Z,47.79
2018-11-11T13:41:12.426Z,47.67
2018-11-11T13:43:42.674Z,47.48
2018-11-11T13:46:12.923Z,47.80
2018-11-11T13:48:43.182Z,48.45
2018-11-11T13:51:13.063Z,48.25
2018-11-11T13:53:42.892Z,48.91
2018-11-11T13:56:12.736Z,49.62
2018-11-11T13:58:42.624Z,50.05
2018-11-11T14:01:12.414Z,50.70
2018-11-11T14:03:41.988Z,50.66
2018-11-11T14:06:11.644Z,50.92
2018-11-11T14:08:41.410Z,50.99
2018-11-11T14:11:11.188Z,51.38
2018-11-11T14:13:40.784Z,51.22
2018-11-11T14:16:10.533Z,51.71
2018-11-11T14:18:40.468Z,52.16
2018-11-11T14:21:10.172Z,52.92
2018-11-11T14:23:40.028Z,53.99
2018-11-11T14:26:09.775Z,53.84
2018-11-11T14:28:39.630Z,54.78
2018-11-11T14:31:09.274Z,56.55
2018-11-11T14:33:38.984Z,56.26
2018-11-11T14:36:08.869Z,57.03
2018-11-11T14:38:38.865Z,57.74
2018-11-11T14:41:08.643Z,57.57
2018-11-11T14:43:38.379Z,58.52
2018-11-11T14:46:08.443Z,59.12
2018-11-11T14:48:38.058Z,59.19
2018-11-11T14:51:07.840Z,59.26
2018-11-11T14:53:37.704Z,60.24
2018-11-11T14:56:07.942Z,60.98
2018-11-11T14:58:38.760Z,62.19
2018-11-11T15:01:08.620Z,63.33
2018-11-11T15:03:38.389Z,63.61
2018-11-11T15:06:07.930Z,63.47
2018-11-11T15:08:37.703Z,64.29
2018-11-11T15:11:07.575Z,65.10
2018-11-11T15:13:37.414Z,65.76
2018-11-11T15:16:07.408Z,66.66
2018-11-11T15:18:37.330Z,66.67
2018-11-11T15:21:07.181Z,67.60
2018-11-11T15:23:36.866Z,67.81
2018-11-11T15:26:07.216Z,68.68
2018-11-11T15:28:37.017Z,69.38
2018-11-11T15:31:07.027Z,69.32
2018-11-11T15:33:36.821Z,69.96
2018-11-11T15:36:06.645Z,71.11
2018-11-11T15:38:36.330Z,71.70
2018-11-11T15:41:06.154Z,72.32
2018-11-11T15:43:35.838Z,73.60
2018-11-11T15:46:05.772Z,73.34
2018-11-11T15:48:35.366Z,73.17
2018-11-11T15:51:05.130Z,73.70
2018-11-11T15:53:35.090Z,74.51
2018-11-11T15:56:17.634Z,74.54
2018-11-11T15:58:47.479Z,75.00
2018-11-11T16:01:17.351Z,74.81
2018-11-11T16:03:47.461Z,74.75
2018-11-11T16:06:17.916Z,75.54
2018-11-11T16:08:47.668Z,75.61
2018-11-11T16:11:17.993Z,76.26
2018-11-11T16:13:47.708Z,76.45
2018-11-11T16:16:17.306Z,76.76
2018-11-11T16:18:47.183Z,76.97
2018-11-11T16:21:16.840Z,77.30
2018-11-11T16:23:47.356Z,77.68
2018-11-11T16:26:17.073Z,77.78
2018-11-11T16:28:46.815Z,77.18
2018-11-11T16:31:16.788Z,77.24
2018-11-11T16:33:46.465Z,76.58
2018-11-11T16:36:16.011Z,76.96
2018-11-11T16:38:45.724Z,78.33
2018-11-11T16:41:16.050Z,79.91
2018-11-11T16:43:45.898Z,79.84
2018-11-11T16:46:15.787Z,80.21
2018-11-11T16:48:46.231Z,80.25
2018-11-11T16:51:15.854Z,77.23
2018-11-11T16:53:45.817Z,76.41
2018-11-11T16:56:15.689Z,76.14
2018-11-11T16:58:45.268Z,77.25
2018-11-11T17:01:15.023Z,77.32
2018-11-11T17:03:44.653Z,78.11
2018-11-11T17:06:14.712Z,77.69
2018-11-11T17:08:46.109Z,78.56
2018-11-11T17:11:15.973Z,79.07
2018-11-11T17:13:45.748Z,79.56
2018-11-11T17:16:15.506Z,80.32
2018-11-11T17:18:45.399Z,80.77
2018-11-11T17:21:15.204Z,81.02
2018-11-11T17:23:44.924Z,81.96
2018-11-11T17:26:15.001Z,83.75
2018-11-11T17:28:44.849Z,82.61
2018-11-11T17:31:14.765Z,82.19
2018-11-11T17:33:45.046Z,82.20
2018-11-11T17:36:17.144Z,82.31
2018-11-11T17:38:46.920Z,82.51
2018-11-11T17:41:16.616Z,82.95
2018-11-11T17:43:46.373Z,83.55
2018-11-11T17:46:16.192Z,83.42
2018-11-11T17:48:45.854Z,84.38
2018-11-11T17:51:15.776Z,84.62
2018-11-11T17:53:45.505Z,84.41
2018-11-11T17:56:15.295Z,84.69
2018-11-11T17:58:44.986Z,84.65
2018-11-11T18:01:14.756Z,84.80
2018-11-11T18:03:44.440Z,84.93
2018-11-11T18:06:15.186Z,85.63
2018-11-11T18:08:44.848Z,85.44
2018-11-11T18:11:15.873Z,85.77
2018-11-11T18:13:45.806Z,85.44
2018-11-11T18:16:15.315Z,85.55
2018-11-11T18:18:44.923Z,85.42
2018-11-11T18:21:14.759Z,85.43
2018-11-11T18:23:44.544Z,85.83
2018-11-11T18:26:14.222Z,86.18
2018-11-11T18:28:44.030Z,87.44
2018-11-11T18:31:13.778Z,89.87
2018-11-11T18:33:43.414Z,87.02
2018-11-11T18:36:15.289Z,86.30
2018-11-11T18:38:44.954Z,87.21
2018-11-11T18:41:14.705Z,86.58
2018-11-11T18:43:44.429Z,86.26
2018-11-11T18:46:14.116Z,86.19
2018-11-11T18:48:43.948Z,86.53
2018-11-11T18:51:13.557Z,87.07
2018-11-11T18:53:43.473Z,87.12
2018-11-11T18:56:13.284Z,87.01
2018-11-11T18:58:42.856Z,87.81
2018-11-11T19:01:13.169Z,88.55
2018-11-11T19:03:42.920Z,88.91
2018-11-11T19:06:12.476Z,89.08
2018-11-11T19:08:42.341Z,89.79
2018-11-11T19:11:12.246Z,90.04
2018-11-11T19:13:42.056Z,90.21
2018-11-11T19:16:11.859Z,91.02
2018-11-11T19:18:42.292Z,91.66
2018-11-11T19:21:12.065Z,91.79
2018-11-11T19:23:41.739Z,91.98
2018-11-11T19:26:11.278Z,92.22
2018-11-11T19:28:42.144Z,92.08
2018-11-11T19:31:11.873Z,91.27
2018-11-11T19:33:41.691Z,92.78
2018-11-11T19:36:11.495Z,91.31
2018-11-11T19:38:41.137Z,91.65
2018-11-11T19:41:11.229Z,91.16
2018-11-11T19:43:42.527Z,90.63
2018-11-11T19:46:12.300Z,91.01
2018-11-11T19:48:42.117Z,91.19
2018-11-11T19:51:11.845Z,91.38
2018-11-11T19:53:41.560Z,91.53
2018-11-11T19:56:11.412Z,92.06
2018-11-11T19:58:41.076Z,92.19
2018-11-11T20:01:10.917Z,92.05
2018-11-11T20:03:40.689Z,91.92
2018-11-11T20:06:10.333Z,91.70
2018-11-11T20:08:40.165Z,91.93
2018-11-11T20:11:09.858Z,92.95
2018-11-11T20:13:39.580Z,92.47
2018-11-11T20:16:09.245Z,92.27
2018-11-11T20:18:39.093Z,92.20
2018-11-11T20:21:08.864Z,93.16
2018-11-11T20:23:38.807Z,93.08
2018-11-11T20:26:08.517Z,92.52
2018-11-11T20:28:38.134Z,93.05
2018-11-11T20:31:07.804Z,92.88
2018-11-11T20:33:37.477Z,92.79
2018-11-11T20:36:07.354Z,92.85
2018-11-11T20:38:37.355Z,93.24
2018-11-11T20:41:07.293Z,92.90
2018-11-11T20:43:37.185Z,93.35
2018-11-11T20:46:06.978Z,93.52
2018-11-11T20:48:36.787Z,93.60
2018-11-11T20:51:06.546Z,93.90
2018-11-11T20:53:36.312Z,94.32
2018-11-11T20:56:06.279Z,94.51
2018-11-11T20:58:36.037Z,95.20
2018-11-11T21:01:05.847Z,95.05
2018-11-11T21:03:37.124Z,94.38
2018-11-11T21:06:07.056Z,93.94
2018-11-11T21:08:38.252Z,94.81
2018-11-11T21:11:07.769Z,95.15
2018-11-11T21:13:37.508Z,95.24
2018-11-11T21:16:07.533Z,95.04
2018-11-11T21:18:37.598Z,95.01
2018-11-11T21:21:07.547Z,95.41
2018-11-11T21:23:37.262Z,95.63
2018-11-11T21:26:07.021Z,95.46
2018-11-11T21:28:36.746Z,96.13
2018-11-11T21:31:06.627Z,96.77
2018-11-11T21:33:37.214Z,96.61
2018-11-11T21:36:07.099Z,96.01
2018-11-11T21:38:37.059Z,95.59
2018-11-11T21:41:06.938Z,95.76
2018-11-11T21:43:37.335Z,96.34
2018-11-11T21:46:07.283Z,96.01
2018-11-11T21:48:36.889Z,96.21
2018-11-11T21:51:06.929Z,96.16
2018-11-11T21:53:41.490Z,96.23
2018-11-11T21:56:11.402Z,96.72
2018-11-11T21:58:41.363Z,97.46
2018-11-11T22:01:11.069Z,97.00
2018-11-11T22:03:41.360Z,97.10
2018-11-11T22:06:11.006Z,96.69
2018-11-11T22:08:41.627Z,96.75
2018-11-11T22:11:11.217Z,96.76
2018-11-11T22:13:40.823Z,96.78
2018-11-11T22:16:10.569Z,96.88
2018-11-11T22:18:40.415Z,97.01
2018-11-11T22:21:10.481Z,97.27
2018-11-11T22:23:40.513Z,98.03
2018-11-11T22:26:10.100Z,99.73
2018-11-11T22:28:39.901Z,99.32
2018-11-11T22:31:09.676Z,99.47
2018-11-11T22:33:39.898Z,98.54
2018-11-11T22:36:09.632Z,98.41
2018-11-11T22:38:39.312Z,98.00
2018-11-11T22:41:09.047Z,98.36
2018-11-11T22:43:38.751Z,98.00
2018-11-11T22:46:08.597Z,97.76
2018-11-11T22:48:38.438Z,97.07
2018-11-11T22:51:08.710Z,97.28
2018-11-11T22:53:38.422Z,97.17
2018-11-11T22:56:08.557Z,96.94
2018-11-11T22:58:38.287Z,97.38
2018-11-11T23:01:13.014Z,97.59
2018-11-11T23:03:42.780Z,97.64
2018-11-11T23:06:12.565Z,97.92
2018-11-11T23:08:42.182Z,97.46
2018-11-11T23:11:11.822Z,97.75
2018-11-11T23:13:41.376Z,97.37
2018-11-11T23:16:11.109Z,97.64
2018-11-11T23:18:40.975Z,97.64
2018-11-11T23:21:11.160Z,97.48
2018-11-11T23:23:40.825Z,97.43
2018-11-11T23:26:11.042Z,97.86
2018-11-11T23:28:40.847Z,97.72
2018-11-11T23:31:10.517Z,97.87
2018-11-11T23:33:40.083Z,97.67
2018-11-11T23:36:09.877Z,97.64
2018-11-11T23:38:39.541Z,98.04
2018-11-11T23:41:12.842Z,98.11
2018-11-11T23:43:42.674Z,98.62
2018-11-11T23:46:13.340Z,98.16
2018-11-11T23:48:43.016Z,98.07
2018-11-11T23:51:14.733Z,97.90
2018-11-11T23:53:44.490Z,98.75
2018-11-11T23:56:14.180Z,98.86
2018-11-11T23:58:43.924Z,99.47
